ACA64 RKSI-CYVR
Flight info
| Callsign | ACA64 |
|---|---|
| Flight time | N/A |
| Altitude | 35000 |
| Route | EGOBA2H EGOBA Y697 LANAT Y51 SAMON Y142 GTC Y512 OATIS R580 MAKMU/N0492F370 R580 OLCOT G215 DUT/N0493F390 DCT 54N159W 53N150W 52N140W DCT NUDGE DCT POWOL WHSLR8 |
| Aircraft | B789/H-SDE1E2E3FGHIJ2J3J4J5M1RWXY/LB1D1 |
Departure
| Time | 2026-05-06 05:49 |
|---|---|
| Airport | Incheon International Airport (RKSI) |
Arrival
| Time | N/A |
|---|---|
| Airport | Vancouver International Airport (CYVR) |
| Time | Latitude | Longitude | Altitude | Speed | Heading |
|---|---|---|---|---|---|
| 2026-05-06 05:29 | 37.45326 | 126.44996 | 38 ft | 0 kts | 100° |
| 2026-05-06 05:35 | 37.45327 | 126.44993 | 37 ft | 2 kts | 100° |
| 2026-05-06 05:35 | 37.45329 | 126.44973 | 37 ft | 2 kts | 93° |
| 2026-05-06 05:36 | 37.45328 | 126.44952 | 37 ft | 2 kts | 83° |
| 2026-05-06 05:36 | 37.45325 | 126.44932 | 33 ft | 2 kts | 67° |
| 2026-05-06 05:36 | 37.45315 | 126.44915 | 33 ft | 2 kts | 40° |
| 2026-05-06 05:36 | 37.45301 | 126.44906 | 36 ft | 2 kts | 10° |
| 2026-05-06 05:37 | 37.45291 | 126.44905 | 37 ft | 0 kts | 351° |
| 2026-05-06 05:42 | 37.45295 | 126.44903 | 37 ft | 3 kts | 344° |
| 2026-05-06 05:42 | 37.45361 | 126.44882 | 37 ft | 17 kts | 354° |
| 2026-05-06 05:43 | 37.45475 | 126.44980 | 37 ft | 21 kts | 55° |
| 2026-05-06 05:43 | 37.45560 | 126.45130 | 37 ft | 21 kts | 54° |
| 2026-05-06 05:43 | 37.45645 | 126.45281 | 37 ft | 22 kts | 54° |
| 2026-05-06 05:43 | 37.45731 | 126.45432 | 37 ft | 20 kts | 54° |
| 2026-05-06 05:44 | 37.45822 | 126.45457 | 37 ft | 16 kts | 326° |
| 2026-05-06 05:44 | 37.45934 | 126.45365 | 37 ft | 22 kts | 327° |
| 2026-05-06 05:44 | 37.46075 | 126.45238 | 34 ft | 28 kts | 324° |
| 2026-05-06 05:44 | 37.46232 | 126.45100 | 37 ft | 27 kts | 325° |
| 2026-05-06 05:45 | 37.46396 | 126.44954 | 37 ft | 30 kts | 324° |
| 2026-05-06 05:45 | 37.46561 | 126.44807 | 37 ft | 28 kts | 324° |
| 2026-05-06 05:45 | 37.46715 | 126.44669 | 38 ft | 27 kts | 325° |
| 2026-05-06 05:45 | 37.46870 | 126.44532 | 37 ft | 28 kts | 325° |
| 2026-05-06 05:46 | 37.47032 | 126.44389 | 37 ft | 29 kts | 325° |
| 2026-05-06 05:46 | 37.47189 | 126.44250 | 37 ft | 27 kts | 324° |
| 2026-05-06 05:46 | 37.47342 | 126.44112 | 37 ft | 28 kts | 324° |
| 2026-05-06 05:46 | 37.47506 | 126.43966 | 38 ft | 29 kts | 324° |
| 2026-05-06 05:47 | 37.47668 | 126.43821 | 38 ft | 28 kts | 324° |
| 2026-05-06 05:47 | 37.47823 | 126.43688 | 38 ft | 26 kts | 324° |
| 2026-05-06 05:47 | 37.47968 | 126.43559 | 36 ft | 25 kts | 325° |
| 2026-05-06 05:47 | 37.48077 | 126.43508 | 37 ft | 14 kts | 31° |
| 2026-05-06 05:48 | 37.48145 | 126.43621 | 37 ft | 16 kts | 72° |
| 2026-05-06 05:48 | 37.48108 | 126.43701 | 37 ft | 8 kts | 144° |
| 2026-05-06 05:48 | 37.48058 | 126.43746 | 37 ft | 17 kts | 144° |
| 2026-05-06 05:48 | 37.47839 | 126.43940 | 39 ft | 63 kts | 145° |
| 2026-05-06 05:49 | 37.47338 | 126.44384 | 37 ft | 112 kts | 144° |
| 2026-05-06 05:49 | 37.46593 | 126.45048 | 36 ft | 153 kts | 145° |
| 2026-05-06 05:49 | 37.45638 | 126.45913 | 111 ft | 176 kts | 143° |
| 2026-05-06 05:49 | 37.44740 | 126.46837 | 644 ft | 163 kts | 142° |
| 2026-05-06 05:50 | 37.43981 | 126.47967 | 935 ft | 179 kts | 132° |
| 2026-05-06 05:50 | 37.43155 | 126.49232 | 1301 ft | 189 kts | 136° |
| 2026-05-06 05:50 | 37.42304 | 126.50531 | 1768 ft | 199 kts | 136° |
| 2026-05-06 05:50 | 37.41373 | 126.51970 | 1979 ft | 225 kts | 135° |
| 2026-05-06 05:51 | 37.40344 | 126.53578 | 2305 ft | 242 kts | 134° |
| 2026-05-06 05:51 | 37.39260 | 126.55278 | 2673 ft | 259 kts | 134° |
| 2026-05-06 05:51 | 37.38111 | 126.57071 | 3222 ft | 264 kts | 134° |
| 2026-05-06 05:51 | 37.36765 | 126.58606 | 3783 ft | 261 kts | 155° |
| 2026-05-06 05:52 | 37.35090 | 126.59467 | 4372 ft | 262 kts | 164° |
| 2026-05-06 05:52 | 37.33338 | 126.60212 | 5002 ft | 268 kts | 165° |
| 2026-05-06 05:52 | 37.31579 | 126.60946 | 5711 ft | 272 kts | 165° |
| 2026-05-06 05:52 | 37.29788 | 126.61754 | 6430 ft | 276 kts | 158° |
| 2026-05-06 05:53 | 37.28293 | 126.63295 | 7088 ft | 284 kts | 130° |
| 2026-05-06 05:53 | 37.27445 | 126.65556 | 7715 ft | 292 kts | 102° |
| 2026-05-06 05:53 | 37.27402 | 126.68120 | 8336 ft | 297 kts | 85° |
| 2026-05-06 05:53 | 37.27552 | 126.70727 | 9003 ft | 301 kts | 87° |
| 2026-05-06 05:54 | 37.27692 | 126.73366 | 9668 ft | 304 kts | 87° |
| 2026-05-06 05:54 | 37.27834 | 126.76008 | 10188 ft | 313 kts | 87° |
| 2026-05-06 05:54 | 37.27988 | 126.78888 | 10227 ft | 339 kts | 87° |
| 2026-05-06 05:54 | 37.28149 | 126.81901 | 10281 ft | 362 kts | 87° |
| 2026-05-06 05:55 | 37.28323 | 126.85145 | 10368 ft | 383 kts | 87° |
| 2026-05-06 05:55 | 37.28504 | 126.88513 | 10891 ft | 386 kts | 86° |
| 2026-05-06 05:55 | 37.28855 | 126.91890 | 11397 ft | 391 kts | 83° |
| 2026-05-06 05:55 | 37.29132 | 126.95304 | 11950 ft | 394 kts | 85° |
| 2026-05-06 05:56 | 37.29392 | 126.98747 | 12493 ft | 398 kts | 85° |
| 2026-05-06 05:56 | 37.29713 | 127.02220 | 13017 ft | 402 kts | 84° |
| 2026-05-06 05:56 | 37.30055 | 127.05722 | 13539 ft | 406 kts | 84° |
| 2026-05-06 05:56 | 37.30372 | 127.09259 | 14029 ft | 409 kts | 84° |
| 2026-05-06 05:57 | 37.30778 | 127.12809 | 14455 ft | 413 kts | 75° |
| 2026-05-06 05:57 | 37.31685 | 127.16249 | 14895 ft | 416 kts | 71° |
| 2026-05-06 05:57 | 37.32587 | 127.19669 | 15381 ft | 419 kts | 71° |
| 2026-05-06 05:57 | 37.33694 | 127.23061 | 15761 ft | 422 kts | 57° |
| 2026-05-06 05:58 | 37.35515 | 127.25988 | 16258 ft | 420 kts | 41° |
| 2026-05-06 05:58 | 37.37777 | 127.28221 | 16684 ft | 421 kts | 33° |
| 2026-05-06 05:58 | 37.40178 | 127.30359 | 17101 ft | 423 kts | 32° |
| 2026-05-06 05:58 | 37.42610 | 127.32477 | 17545 ft | 426 kts | 32° |
| 2026-05-06 05:59 | 37.45042 | 127.34639 | 17975 ft | 429 kts | 35° |
| 2026-05-06 05:59 | 37.47192 | 127.37276 | 18348 ft | 436 kts | 50° |
| 2026-05-06 05:59 | 37.48808 | 127.40541 | 18659 ft | 442 kts | 65° |
| 2026-05-06 05:59 | 37.49764 | 127.44233 | 19031 ft | 445 kts | 78° |
| 2026-05-06 06:00 | 37.50384 | 127.48067 | 19324 ft | 449 kts | 78° |
| 2026-05-06 06:00 | 37.50995 | 127.51927 | 19672 ft | 451 kts | 78° |
| 2026-05-06 06:00 | 37.51607 | 127.55811 | 20011 ft | 453 kts | 77° |
| 2026-05-06 06:00 | 37.52224 | 127.59660 | 20339 ft | 456 kts | 77° |
| 2026-05-06 06:01 | 37.52855 | 127.63586 | 20661 ft | 458 kts | 77° |
| 2026-05-06 06:01 | 37.53067 | 127.64914 | 20756 ft | 459 kts | 77° |
| 2026-05-06 06:01 | 37.54690 | 127.75172 | 21539 ft | 465 kts | 77° |
| 2026-05-06 06:02 | 37.55326 | 127.79181 | 21815 ft | 468 kts | 77° |
| 2026-05-06 06:02 | 37.55962 | 127.83212 | 22117 ft | 470 kts | 77° |
| 2026-05-06 06:02 | 37.56600 | 127.87272 | 22385 ft | 473 kts | 77° |
| 2026-05-06 06:02 | 37.57240 | 127.91347 | 22644 ft | 475 kts | 77° |
| 2026-05-06 06:03 | 37.57761 | 127.94674 | 22850 ft | 477 kts | 77° |
| 2026-05-06 06:03 | 37.58405 | 127.98787 | 23151 ft | 478 kts | 77° |
| 2026-05-06 06:03 | 37.59047 | 128.02908 | 23406 ft | 480 kts | 77° |
| 2026-05-06 06:03 | 37.59691 | 128.07046 | 23637 ft | 482 kts | 77° |
| 2026-05-06 06:04 | 37.60335 | 128.11199 | 23869 ft | 483 kts | 77° |
| 2026-05-06 06:04 | 37.60980 | 128.15365 | 24082 ft | 485 kts | 77° |
| 2026-05-06 06:04 | 37.61626 | 128.19546 | 24287 ft | 487 kts | 77° |
| 2026-05-06 06:04 | 37.62272 | 128.23739 | 24536 ft | 487 kts | 77° |
| 2026-05-06 06:05 | 37.62919 | 128.27950 | 24741 ft | 488 kts | 77° |
| 2026-05-06 06:05 | 37.63565 | 128.32166 | 24921 ft | 490 kts | 77° |
| 2026-05-06 06:05 | 37.64211 | 128.36389 | 25118 ft | 491 kts | 77° |
| 2026-05-06 06:05 | 37.64858 | 128.40630 | 25294 ft | 492 kts | 77° |
| 2026-05-06 06:06 | 37.65503 | 128.44869 | 25496 ft | 493 kts | 77° |
| 2026-05-06 06:06 | 37.66149 | 128.49125 | 25693 ft | 494 kts | 77° |
| 2026-05-06 06:06 | 37.66796 | 128.53397 | 25855 ft | 496 kts | 77° |
| 2026-05-06 06:06 | 37.67443 | 128.57687 | 26033 ft | 497 kts | 77° |
| 2026-05-06 06:07 | 37.68090 | 128.61994 | 26209 ft | 498 kts | 77° |
| 2026-05-06 06:07 | 37.68723 | 128.66247 | 26330 ft | 500 kts | 77° |
| 2026-05-06 06:07 | 37.69128 | 128.70617 | 26551 ft | 502 kts | 88° |
| 2026-05-06 06:07 | 37.68846 | 128.75031 | 26715 ft | 506 kts | 100° |
| 2026-05-06 06:08 | 37.67887 | 128.79309 | 26932 ft | 507 kts | 112° |
| 2026-05-06 06:08 | 37.66309 | 128.83271 | 27236 ft | 506 kts | 121° |
| 2026-05-06 06:08 | 37.64495 | 128.87101 | 27501 ft | 508 kts | 121° |
| 2026-05-06 06:08 | 37.62651 | 128.90923 | 27760 ft | 512 kts | 121° |
| 2026-05-06 06:09 | 37.60788 | 128.94774 | 28023 ft | 514 kts | 121° |
| 2026-05-06 06:09 | 37.58940 | 128.98634 | 28285 ft | 516 kts | 121° |
| 2026-05-06 06:09 | 37.57105 | 129.02474 | 28550 ft | 518 kts | 121° |
| 2026-05-06 06:09 | 37.55230 | 129.06365 | 28816 ft | 520 kts | 121° |
| 2026-05-06 06:10 | 37.53347 | 129.10259 | 29085 ft | 521 kts | 121° |
| 2026-05-06 06:10 | 37.51459 | 129.14172 | 29360 ft | 523 kts | 121° |
| 2026-05-06 06:10 | 37.49570 | 129.18093 | 29632 ft | 524 kts | 121° |
| 2026-05-06 06:10 | 37.47672 | 129.22019 | 29909 ft | 525 kts | 121° |
| 2026-05-06 06:11 | 37.45766 | 129.25951 | 30156 ft | 526 kts | 121° |
| 2026-05-06 06:11 | 37.43856 | 129.29889 | 30383 ft | 526 kts | 121° |
| 2026-05-06 06:11 | 37.41974 | 129.33773 | 30662 ft | 526 kts | 121° |
| 2026-05-06 06:11 | 37.40070 | 129.37699 | 30938 ft | 525 kts | 120° |
| 2026-05-06 06:12 | 37.38167 | 129.41616 | 31222 ft | 525 kts | 120° |
| 2026-05-06 06:12 | 37.36264 | 129.45525 | 31502 ft | 524 kts | 120° |
| 2026-05-06 06:12 | 37.34361 | 129.49431 | 31787 ft | 523 kts | 120° |
| 2026-05-06 06:12 | 37.32461 | 129.53329 | 32069 ft | 522 kts | 120° |
| 2026-05-06 06:13 | 37.30560 | 129.57222 | 32350 ft | 522 kts | 120° |
| 2026-05-06 06:13 | 37.28664 | 129.61099 | 32647 ft | 521 kts | 120° |
| 2026-05-06 06:13 | 37.26771 | 129.64969 | 32937 ft | 519 kts | 120° |
| 2026-05-06 06:13 | 37.24876 | 129.68836 | 33236 ft | 518 kts | 120° |
| 2026-05-06 06:14 | 37.22989 | 129.72683 | 33526 ft | 517 kts | 119° |
| 2026-05-06 06:14 | 37.21104 | 129.76520 | 33830 ft | 516 kts | 119° |
| 2026-05-06 06:14 | 37.19246 | 129.80299 | 34104 ft | 514 kts | 119° |
| 2026-05-06 06:14 | 37.17370 | 129.84111 | 34364 ft | 513 kts | 119° |
| 2026-05-06 06:15 | 37.15497 | 129.87911 | 34627 ft | 511 kts | 119° |
| 2026-05-06 06:15 | 37.13631 | 129.91693 | 34890 ft | 509 kts | 119° |
| 2026-05-06 06:15 | 37.09874 | 129.99299 | 34984 ft | 517 kts | 120° |
| 2026-05-06 06:16 | 37.06046 | 130.07024 | 35008 ft | 525 kts | 120° |
| 2026-05-06 06:16 | 37.02181 | 130.14809 | 35005 ft | 533 kts | 120° |
| 2026-05-06 06:17 | 36.98228 | 130.22751 | 35017 ft | 541 kts | 120° |
| 2026-05-06 06:17 | 36.94219 | 130.30786 | 35019 ft | 548 kts | 120° |
| 2026-05-06 06:18 | 36.90160 | 130.38903 | 35025 ft | 554 kts | 120° |
| 2026-05-06 06:18 | 36.86053 | 130.47096 | 35023 ft | 558 kts | 120° |
| 2026-05-06 06:19 | 36.81936 | 130.55285 | 35025 ft | 554 kts | 120° |
| 2026-05-06 06:19 | 36.77863 | 130.63372 | 35032 ft | 553 kts | 120° |
| 2026-05-06 06:20 | 36.73755 | 130.71507 | 35034 ft | 554 kts | 120° |
| 2026-05-06 06:20 | 36.69638 | 130.79643 | 35035 ft | 554 kts | 120° |
| 2026-05-06 06:21 | 36.65508 | 130.87786 | 35030 ft | 555 kts | 120° |
| 2026-05-06 06:21 | 36.61409 | 130.95847 | 35045 ft | 554 kts | 120° |
| 2026-05-06 06:22 | 36.57282 | 131.03943 | 35037 ft | 551 kts | 120° |
| 2026-05-06 06:22 | 36.53160 | 131.12013 | 35035 ft | 552 kts | 120° |
| 2026-05-06 06:23 | 36.49040 | 131.20056 | 35040 ft | 550 kts | 121° |
| 2026-05-06 06:23 | 36.44954 | 131.28016 | 35044 ft | 550 kts | 121° |
| 2026-05-06 06:24 | 36.40840 | 131.36012 | 35043 ft | 549 kts | 121° |
| 2026-05-06 06:24 | 36.37748 | 131.44544 | 35076 ft | 541 kts | 100° |
| 2026-05-06 06:25 | 36.36987 | 131.53773 | 35064 ft | 538 kts | 89° |
| 2026-05-06 06:26 | 36.36571 | 131.67727 | 35060 ft | 541 kts | 90° |
| 2026-05-06 06:26 | 36.36261 | 131.77045 | 35061 ft | 540 kts | 89° |
| 2026-05-06 06:27 | 36.35967 | 131.86295 | 35060 ft | 541 kts | 90° |
| 2026-05-06 06:27 | 36.35648 | 131.95626 | 35060 ft | 541 kts | 90° |
| 2026-05-06 06:28 | 36.35332 | 132.04967 | 35058 ft | 543 kts | 91° |
| 2026-05-06 06:28 | 36.35000 | 132.14344 | 35061 ft | 544 kts | 91° |
| 2026-05-06 06:29 | 36.34664 | 132.23757 | 35075 ft | 545 kts | 92° |
| 2026-05-06 06:29 | 36.34318 | 132.33152 | 35070 ft | 546 kts | 92° |
| 2026-05-06 06:30 | 36.33970 | 132.42496 | 35072 ft | 545 kts | 92° |
| 2026-05-06 06:30 | 36.33609 | 132.51914 | 35065 ft | 548 kts | 92° |
| 2026-05-06 06:31 | 36.33240 | 132.61371 | 35076 ft | 549 kts | 93° |
| 2026-05-06 06:31 | 36.32863 | 132.70855 | 35070 ft | 553 kts | 94° |
| 2026-05-06 06:32 | 36.32473 | 132.80434 | 35072 ft | 557 kts | 94° |
| 2026-05-06 06:32 | 36.32077 | 132.90027 | 35080 ft | 556 kts | 94° |
| 2026-05-06 06:33 | 36.31673 | 132.99582 | 35074 ft | 554 kts | 94° |
| 2026-05-06 06:33 | 36.31263 | 133.09120 | 35071 ft | 554 kts | 94° |
| 2026-05-06 06:34 | 36.30845 | 133.18663 | 35074 ft | 555 kts | 94° |
| 2026-05-06 06:34 | 36.30421 | 133.28160 | 35081 ft | 556 kts | 94° |
| 2026-05-06 06:35 | 36.29985 | 133.37755 | 35082 ft | 560 kts | 95° |
| 2026-05-06 06:35 | 36.29539 | 133.47411 | 35092 ft | 561 kts | 95° |
| 2026-05-06 06:36 | 36.29086 | 133.57056 | 35095 ft | 559 kts | 95° |
| 2026-05-06 06:36 | 36.28626 | 133.66692 | 35078 ft | 561 kts | 96° |
| 2026-05-06 06:37 | 36.28152 | 133.76394 | 35082 ft | 567 kts | 97° |
| 2026-05-06 06:37 | 36.27669 | 133.86180 | 35095 ft | 569 kts | 97° |
| 2026-05-06 06:38 | 36.27179 | 133.95908 | 35092 ft | 568 kts | 97° |
| 2026-05-06 06:38 | 36.26679 | 134.05692 | 35094 ft | 570 kts | 98° |
| 2026-05-06 06:39 | 36.26163 | 134.15552 | 35096 ft | 576 kts | 98° |
| 2026-05-06 06:39 | 36.25639 | 134.25511 | 35101 ft | 578 kts | 98° |
| 2026-05-06 06:40 | 36.25106 | 134.35427 | 35084 ft | 576 kts | 98° |
| 2026-05-06 06:40 | 36.24711 | 134.45343 | 35103 ft | 586 kts | 90° |
| 2026-05-06 06:40 | 36.25224 | 134.50388 | 35114 ft | 596 kts | 79° |
| 2026-05-06 06:41 | 36.26406 | 134.55328 | 35122 ft | 602 kts | 69° |
| 2026-05-06 06:41 | 36.29403 | 134.63179 | 35107 ft | 607 kts | 64° |
| 2026-05-06 06:42 | 36.33160 | 134.72552 | 35106 ft | 607 kts | 65° |
| 2026-05-06 06:42 | 36.36884 | 134.81989 | 35108 ft | 611 kts | 65° |
| 2026-05-06 06:43 | 36.40641 | 134.91460 | 35107 ft | 610 kts | 65° |
| 2026-05-06 06:43 | 36.44380 | 135.00960 | 35105 ft | 615 kts | 65° |
| 2026-05-06 06:44 | 36.48125 | 135.10477 | 35111 ft | 618 kts | 65° |
| 2026-05-06 06:44 | 36.51880 | 135.20061 | 35108 ft | 613 kts | 65° |
| 2026-05-06 06:45 | 36.55592 | 135.29560 | 35104 ft | 610 kts | 65° |
| 2026-05-06 06:45 | 36.59300 | 135.39078 | 35109 ft | 612 kts | 65° |
| 2026-05-06 06:46 | 36.63024 | 135.48665 | 35102 ft | 617 kts | 65° |
| 2026-05-06 06:46 | 36.66736 | 135.58249 | 35109 ft | 616 kts | 65° |
| 2026-05-06 06:47 | 36.70461 | 135.67901 | 35112 ft | 620 kts | 65° |
| 2026-05-06 06:47 | 36.74200 | 135.77612 | 35110 ft | 621 kts | 65° |
| 2026-05-06 06:48 | 36.77940 | 135.87360 | 35094 ft | 625 kts | 65° |
| 2026-05-06 06:48 | 36.81694 | 135.97176 | 35099 ft | 628 kts | 65° |
| 2026-05-06 06:49 | 36.85424 | 136.06958 | 35100 ft | 628 kts | 65° |
| 2026-05-06 06:49 | 36.89170 | 136.16814 | 35095 ft | 628 kts | 65° |
| 2026-05-06 06:50 | 36.92904 | 136.26668 | 35112 ft | 628 kts | 66° |
| 2026-05-06 06:50 | 36.96634 | 136.36541 | 35110 ft | 627 kts | 65° |
| 2026-05-06 06:51 | 37.00351 | 136.46412 | 35114 ft | 628 kts | 66° |
| 2026-05-06 06:51 | 37.04050 | 136.56270 | 35116 ft | 629 kts | 65° |
| 2026-05-06 06:52 | 37.07768 | 136.66207 | 35119 ft | 630 kts | 66° |
| 2026-05-06 06:52 | 37.11482 | 136.76164 | 35114 ft | 630 kts | 66° |
| 2026-05-06 06:53 | 37.15198 | 136.86158 | 35117 ft | 633 kts | 66° |
| 2026-05-06 06:53 | 37.18909 | 136.96173 | 35133 ft | 633 kts | 66° |
| 2026-05-06 06:54 | 37.22610 | 137.06189 | 35115 ft | 631 kts | 66° |
| 2026-05-06 06:54 | 37.26265 | 137.16116 | 35112 ft | 630 kts | 66° |
| 2026-05-06 06:55 | 37.29935 | 137.26115 | 35120 ft | 630 kts | 66° |
| 2026-05-06 06:55 | 37.33593 | 137.36115 | 35123 ft | 629 kts | 66° |
| 2026-05-06 06:56 | 37.37246 | 137.46136 | 35112 ft | 632 kts | 66° |
| 2026-05-06 06:56 | 37.40919 | 137.56241 | 35125 ft | 637 kts | 66° |
| 2026-05-06 06:57 | 37.44594 | 137.66387 | 35110 ft | 636 kts | 66° |
| 2026-05-06 06:57 | 37.48258 | 137.76536 | 35114 ft | 638 kts | 66° |
| 2026-05-06 06:58 | 37.51900 | 137.86661 | 35130 ft | 638 kts | 66° |
| 2026-05-06 06:58 | 37.55551 | 137.96841 | 35116 ft | 636 kts | 66° |
| 2026-05-06 06:59 | 37.59186 | 138.07013 | 35114 ft | 635 kts | 66° |
| 2026-05-06 06:59 | 37.62810 | 138.17186 | 35121 ft | 636 kts | 66° |
| 2026-05-06 07:00 | 37.66440 | 138.27413 | 35125 ft | 641 kts | 66° |
| 2026-05-06 07:00 | 37.70066 | 138.37663 | 35126 ft | 643 kts | 66° |
| 2026-05-06 07:01 | 37.73705 | 138.47981 | 35117 ft | 641 kts | 66° |
| 2026-05-06 07:01 | 37.77322 | 138.58270 | 35102 ft | 640 kts | 66° |
| 2026-05-06 07:02 | 37.80926 | 138.68559 | 35098 ft | 638 kts | 67° |
| 2026-05-06 07:02 | 37.84514 | 138.78835 | 35109 ft | 639 kts | 67° |
| 2026-05-06 07:03 | 37.88103 | 138.89152 | 35096 ft | 641 kts | 67° |
| 2026-05-06 07:03 | 37.91689 | 138.99495 | 35109 ft | 642 kts | 67° |
| 2026-05-06 07:04 | 37.95167 | 139.09907 | 35133 ft | 640 kts | 75° |
| 2026-05-06 07:04 | 37.96235 | 139.15350 | 35134 ft | 635 kts | 86° |
| 2026-05-06 07:04 | 37.96854 | 139.20890 | 35107 ft | 634 kts | 86° |
| 2026-05-06 07:05 | 37.98010 | 139.31972 | 35102 ft | 634 kts | 86° |
| 2026-05-06 07:05 | 37.99193 | 139.43058 | 35097 ft | 635 kts | 86° |
| 2026-05-06 07:06 | 38.00336 | 139.54088 | 35110 ft | 634 kts | 87° |
| 2026-05-06 07:06 | 38.01485 | 139.65133 | 35087 ft | 630 kts | 86° |
| 2026-05-06 07:07 | 38.02611 | 139.76156 | 35092 ft | 630 kts | 86° |
| 2026-05-06 07:07 | 38.03734 | 139.87193 | 35103 ft | 631 kts | 86° |
| 2026-05-06 07:08 | 38.04846 | 139.98262 | 35108 ft | 632 kts | 86° |
| 2026-05-06 07:08 | 38.05942 | 140.09264 | 35104 ft | 631 kts | 87° |
| 2026-05-06 07:09 | 38.07033 | 140.20314 | 35091 ft | 630 kts | 87° |
| 2026-05-06 07:09 | 38.08112 | 140.31366 | 35092 ft | 630 kts | 87° |
| 2026-05-06 07:10 | 38.09180 | 140.42405 | 35095 ft | 631 kts | 87° |
| 2026-05-06 07:10 | 38.10243 | 140.53517 | 35100 ft | 634 kts | 87° |
| 2026-05-06 07:11 | 38.11298 | 140.64634 | 35085 ft | 635 kts | 87° |
| 2026-05-06 07:11 | 38.12342 | 140.75783 | 35071 ft | 635 kts | 87° |